createdAt,value
2019-04-20T00:00:10.950Z,9.60
2019-04-20T00:02:39.901Z,9.28
2019-04-20T00:05:09.429Z,8.68
2019-04-20T00:07:39.696Z,9.80
2019-04-20T00:10:15.054Z,9.75
2019-04-20T00:12:54.520Z,7.50
2019-04-20T00:15:11.578Z,8.58
2019-04-20T00:17:45.915Z,9.45
2019-04-20T00:20:20.087Z,8.25
2019-04-20T00:22:55.488Z,8.65
2019-04-20T00:25:52.220Z,8.78
2019-04-20T00:28:31.359Z,9.88
2019-04-20T00:31:04.237Z,8.98
2019-04-20T00:35:44.728Z,8.83
2019-04-20T00:38:14.092Z,9.38
2019-04-20T00:40:43.478Z,9.78
2019-04-20T00:43:19.420Z,9.03
2019-04-20T00:45:57.146Z,8.98
2019-04-20T00:48:22.577Z,9.35
2019-04-20T00:50:59.286Z,8.60
2019-04-20T00:53:25.988Z,9.03
2019-04-20T00:55:48.594Z,8.55
2019-04-20T00:58:27.023Z,8.75
2019-04-20T01:01:15.353Z,10.18
2019-04-20T01:03:34.106Z,12.13
2019-04-20T01:06:16.267Z,11.43
2019-04-20T01:08:46.617Z,11.80
2019-04-20T01:11:22.961Z,11.43
2019-04-20T01:13:52.690Z,10.63
2019-04-20T01:16:29.596Z,10.00
2019-04-20T01:18:49.213Z,10.38
2019-04-20T01:21:23.579Z,9.63
2019-04-20T01:23:56.192Z,10.15
2019-04-20T01:26:22.589Z,10.45
2019-04-20T01:29:06.767Z,10.72
2019-04-20T01:31:33.979Z,12.25
2019-04-20T01:34:05.046Z,12.78
2019-04-20T01:36:46.157Z,10.38
2019-04-20T01:39:09.424Z,10.08
2019-04-20T01:41:28.578Z,11.68
2019-04-20T01:43:58.575Z,13.60
2019-04-20T01:46:30.016Z,12.65
2019-04-20T01:49:05.666Z,12.78
2019-04-20T01:51:39.278Z,12.45
2019-04-20T01:54:16.054Z,12.07
2019-04-20T01:56:47.697Z,11.05
2019-04-20T01:59:21.418Z,10.78
2019-04-20T02:01:55.639Z,11.88
2019-04-20T02:04:30.974Z,12.47
2019-04-20T02:06:59.937Z,12.40
2019-04-20T02:09:30.869Z,13.00
2019-04-20T02:12:06.980Z,14.10
2019-04-20T02:14:40.491Z,14.87
2019-04-20T02:17:09.557Z,13.35
2019-04-20T02:19:42.805Z,13.13
2019-04-20T02:22:15.678Z,12.90
2019-04-20T02:24:37.003Z,13.70
2019-04-20T02:27:06.187Z,13.25
2019-04-20T02:30:02.520Z,12.45
2019-04-20T02:35:18.703Z,11.88
2019-04-20T02:37:58.473Z,12.18
2019-04-20T02:40:19.153Z,12.55
2019-04-20T02:42:51.537Z,12.53
2019-04-20T02:45:28.588Z,12.03
2019-04-20T02:47:53.500Z,12.93
2019-04-20T02:50:20.532Z,13.30
2019-04-20T02:52:56.333Z,13.80
2019-04-20T02:55:24.818Z,14.65
2019-04-20T03:00:18.285Z,14.47
2019-04-20T03:02:41.560Z,14.87
2019-04-20T03:05:13.339Z,15.93
2019-04-20T03:07:50.349Z,15.15
2019-04-20T03:10:17.769Z,15.10
2019-04-20T03:12:53.474Z,15.63
2019-04-20T03:15:29.518Z,16.17
2019-04-20T03:18:00.682Z,16.75
2019-04-20T03:20:32.291Z,16.02
2019-04-20T03:23:17.542Z,16.45
2019-04-20T03:25:49.729Z,17.40
2019-04-20T03:28:21.936Z,17.73
2019-04-20T03:31:25.068Z,17.77
2019-04-20T03:33:44.938Z,17.25
2019-04-20T03:36:09.326Z,17.73
2019-04-20T03:38:26.224Z,18.87
2019-04-20T03:40:49.628Z,18.45
2019-04-20T03:43:07.722Z,20.15
2019-04-20T03:45:44.591Z,19.17
2019-04-20T03:48:22.985Z,18.10
2019-04-20T03:50:56.615Z,19.20
2019-04-20T03:53:34.423Z,19.80
2019-04-20T03:56:03.829Z,18.87
2019-04-20T03:58:48.247Z,20.95
2019-04-20T04:01:32.769Z,23.12
2019-04-20T04:04:05.238Z,21.90
2019-04-20T04:06:24.260Z,19.65
2019-04-20T04:08:59.925Z,23.92
2019-04-20T04:11:32.654Z,21.23
2019-04-20T04:13:48.136Z,20.27
2019-04-20T04:16:21.561Z,17.87
2019-04-20T04:18:59.168Z,17.23
2019-04-20T04:21:35.514Z,17.60
2019-04-20T04:24:06.774Z,16.15
2019-04-20T04:26:39.177Z,18.15
2019-04-20T04:29:22.625Z,16.32
2019-04-20T04:31:50.785Z,15.43
2019-04-20T04:34:12.533Z,16.93
2019-04-20T04:36:52.401Z,20.25
2019-04-20T04:39:21.175Z,19.10
2019-04-20T04:41:52.348Z,18.82
2019-04-20T04:44:14.731Z,20.65
2019-04-20T04:46:33.882Z,20.40
2019-04-20T04:49:13.301Z,19.20
2019-04-20T04:51:47.078Z,19.85
2019-04-20T04:54:16.763Z,18.55
2019-04-20T04:56:35.646Z,17.80
2019-04-20T04:59:06.152Z,16.48
2019-04-20T05:01:38.614Z,17.52
2019-04-20T05:04:25.158Z,17.20
2019-04-20T05:06:53.580Z,15.32
2019-04-20T05:09:12.525Z,15.03
2019-04-20T05:11:40.682Z,17.32
2019-04-20T05:14:18.645Z,16.87
2019-04-20T05:16:58.291Z,15.38
2019-04-20T05:19:38.418Z,16.32
2019-04-20T05:22:11.120Z,17.12
2019-04-20T05:24:33.770Z,15.78
2019-04-20T05:27:13.417Z,15.15
2019-04-20T05:29:28.247Z,14.93
2019-04-20T05:31:58.681Z,14.53
2019-04-20T05:34:48.004Z,16.05
2019-04-20T05:37:20.938Z,15.58
2019-04-20T05:39:52.747Z,15.15
2019-04-20T05:42:24.603Z,14.90
2019-04-20T05:44:52.790Z,18.05
2019-04-20T05:47:22.687Z,15.58
2019-04-20T05:49:51.978Z,15.08
2019-04-20T05:52:35.092Z,14.83
2019-04-20T05:54:58.240Z,15.40
2019-04-20T05:57:31.943Z,14.93
2019-04-20T06:00:08.373Z,15.15
2019-04-20T06:02:32.084Z,13.98
2019-04-20T06:05:05.672Z,14.07
2019-04-20T06:07:34.766Z,14.00
2019-04-20T06:10:06.230Z,14.28
2019-04-20T06:12:35.789Z,15.00
2019-04-20T06:15:09.421Z,13.38
2019-04-20T06:18:03.875Z,13.43
2019-04-20T06:23:33.814Z,13.88
2019-04-20T06:28:43.903Z,11.53
2019-04-20T06:31:26.733Z,11.08
2019-04-20T06:34:28.006Z,10.95
2019-04-20T06:36:55.832Z,10.60
2019-04-20T06:39:20.261Z,10.45
2019-04-20T06:44:27.627Z,10.65
2019-04-20T06:46:59.027Z,10.50
2019-04-20T06:49:30.192Z,7.58
2019-04-20T06:51:58.662Z,10.43
2019-04-20T06:54:17.626Z,8.73
2019-04-20T06:56:59.918Z,8.53
2019-04-20T06:59:42.288Z,7.90
2019-04-20T07:02:15.300Z,8.05
2019-04-20T07:07:11.591Z,7.28
2019-04-20T07:09:47.354Z,9.05
2019-04-20T07:12:03.130Z,7.80
2019-04-20T07:14:28.930Z,8.53
2019-04-20T07:17:17.944Z,7.80
2019-04-20T07:19:42.469Z,8.00
2019-04-20T07:27:19.338Z,6.85
2019-04-20T07:30:08.042Z,7.53
2019-04-20T07:32:17.899Z,6.67
2019-04-20T07:34:55.775Z,6.80
2019-04-20T07:38:07.122Z,6.33
2019-04-20T07:40:05.959Z,6.30
2019-04-20T07:42:45.033Z,6.50
2019-04-20T07:45:07.234Z,6.10
2019-04-20T07:47:40.618Z,6.33
2019-04-20T07:50:05.159Z,6.20
2019-04-20T07:52:36.943Z,5.83
2019-04-20T07:55:33.325Z,5.72
2019-04-20T07:57:38.538Z,5.90
2019-04-20T08:00:13.493Z,6.22
2019-04-20T08:03:11.908Z,7.00
2019-04-20T08:08:28.294Z,6.17
2019-04-20T08:11:06.231Z,7.20
2019-04-20T08:13:42.134Z,6.87
2019-04-20T08:16:06.352Z,7.00
2019-04-20T08:18:40.239Z,6.50
2019-04-20T08:21:12.881Z,6.00
2019-04-20T08:23:44.461Z,6.12
2019-04-20T08:26:01.710Z,6.15
2019-04-20T08:28:37.204Z,7.22
2019-04-20T08:31:15.328Z,7.40
2019-04-20T08:34:01.902Z,7.42
2019-04-20T08:36:27.259Z,7.20
2019-04-20T08:39:19.953Z,7.42
2019-04-20T08:41:23.182Z,7.62
2019-04-20T08:44:02.862Z,8.33
2019-04-20T08:46:34.839Z,7.45
2019-04-20T08:49:01.553Z,9.40
2019-04-20T08:51:38.643Z,7.33
2019-04-20T08:54:03.609Z,6.17
2019-04-20T08:56:24.587Z,7.37
2019-04-20T08:58:46.115Z,6.80
2019-04-20T09:01:21.595Z,8.08
2019-04-20T09:04:01.426Z,7.15
2019-04-20T09:06:33.613Z,8.10
2019-04-20T09:09:03.648Z,7.28
2019-04-20T09:11:45.140Z,5.03
2019-04-20T09:13:55.750Z,5.42
2019-04-20T09:16:32.070Z,5.03
2019-04-20T09:18:59.924Z,5.70
2019-04-20T09:21:36.269Z,5.70
2019-04-20T09:24:19.979Z,4.90
2019-04-20T09:26:43.218Z,4.22
2019-04-20T09:29:12.555Z,3.98
2019-04-20T09:31:43.363Z,4.95
2019-04-20T09:34:20.286Z,6.50
2019-04-20T09:36:49.363Z,10.03
2019-04-20T09:39:30.662Z,7.78
2019-04-20T09:42:13.616Z,4.35
2019-04-20T09:44:48.732Z,5.30
2019-04-20T09:47:14.288Z,5.95
2019-04-20T09:49:55.053Z,6.35
2019-04-20T09:52:30.022Z,5.97
2019-04-20T09:55:03.086Z,5.47
2019-04-20T09:57:33.547Z,4.55
2019-04-20T10:00:07.218Z,4.42
2019-04-20T10:02:24.899Z,4.20
2019-04-20T10:04:53.509Z,4.40
2019-04-20T10:07:26.140Z,5.42
2019-04-20T10:09:55.674Z,4.65
2019-04-20T10:12:26.017Z,4.47
2019-04-20T10:15:04.216Z,4.65
2019-04-20T10:17:31.723Z,4.85
2019-04-20T10:20:08.637Z,4.53
2019-04-20T10:22:32.901Z,6.92
2019-04-20T10:25:06.702Z,6.00
2019-04-20T10:27:36.743Z,6.95
2019-04-20T10:30:06.614Z,5.40
2019-04-20T10:32:40.441Z,6.47
2019-04-20T10:35:08.604Z,6.03
2019-04-20T10:37:40.028Z,5.87
2019-04-20T10:40:09.697Z,5.85
2019-04-20T10:42:39.179Z,5.85
2019-04-20T10:45:08.924Z,5.83
2019-04-20T10:47:38.954Z,7.40
2019-04-20T10:50:09.248Z,7.87
2019-04-20T10:52:38.754Z,7.50
2019-04-20T10:55:08.515Z,7.40
2019-04-20T10:57:39.366Z,7.25
2019-04-20T11:00:10.674Z,7.20
2019-04-20T11:02:43.036Z,8.28
2019-04-20T11:05:12.683Z,8.60
2019-04-20T11:07:42.522Z,8.33
2019-04-20T11:10:19.815Z,8.60
2019-04-20T11:12:44.275Z,8.48
2019-04-20T11:15:14.589Z,9.00
2019-04-20T11:17:44.097Z,8.03
2019-04-20T11:20:15.097Z,8.85
2019-04-20T11:22:44.681Z,7.85
2019-04-20T11:25:16.466Z,8.98
2019-04-20T11:27:46.069Z,7.87
2019-04-20T11:30:16.147Z,7.90
2019-04-20T11:32:46.286Z,8.18
2019-04-20T11:35:23.811Z,7.97
2019-04-20T11:37:47.357Z,7.58
2019-04-20T11:40:17.066Z,6.90
2019-04-20T11:42:47.833Z,7.00
2019-04-20T11:45:18.421Z,7.25
2019-04-20T11:47:49.476Z,6.95
2019-04-20T11:50:19.835Z,6.75
2019-04-20T11:52:51.523Z,6.58
2019-04-20T11:55:22.290Z,6.90
2019-04-20T11:57:51.853Z,6.37
2019-04-20T12:00:25.326Z,6.53
2019-04-20T12:03:09.572Z,6.35
2019-04-20T12:05:39.652Z,6.22
2019-04-20T12:08:09.251Z,6.75
2019-04-20T12:10:43.857Z,6.20
2019-04-20T12:13:14.462Z,6.03
2019-04-20T12:15:43.887Z,6.10
2019-04-20T12:18:13.792Z,6.05
2019-04-20T12:20:43.322Z,7.00
2019-04-20T12:23:12.768Z,6.67
2019-04-20T12:25:44.304Z,6.87
2019-04-20T12:28:15.762Z,7.35
2019-04-20T12:30:45.964Z,6.58
2019-04-20T12:33:15.658Z,7.25
2019-04-20T12:35:45.445Z,6.78
2019-04-20T12:38:14.977Z,9.65
2019-04-20T12:40:44.446Z,6.22
2019-04-20T12:43:15.161Z,5.75
2019-04-20T12:45:44.689Z,5.72
2019-04-20T12:48:15.544Z,6.33
2019-04-20T12:50:45.716Z,5.97
2019-04-20T12:53:15.205Z,5.87
2019-04-20T12:55:44.591Z,5.30
2019-04-20T12:58:14.614Z,5.87
2019-04-20T13:00:49.254Z,6.22
2019-04-20T13:03:19.414Z,5.87
2019-04-20T13:05:50.035Z,5.30
2019-04-20T13:08:26.929Z,5.55
2019-04-20T13:10:52.793Z,5.95
2019-04-20T13:13:30.555Z,5.55
2019-04-20T13:16:20.630Z,5.72
2019-04-20T13:18:55.236Z,5.70
2019-04-20T13:21:25.171Z,5.97
2019-04-20T13:23:55.324Z,5.83
2019-04-20T13:26:27.038Z,5.50
2019-04-20T13:29:00.993Z,5.62
2019-04-20T13:31:31.667Z,5.72
2019-04-20T13:34:03.531Z,5.60
2019-04-20T13:36:34.586Z,6.55
2019-04-20T13:39:08.188Z,5.70
2019-04-20T13:41:38.133Z,5.92
2019-04-20T13:44:08.352Z,5.97
2019-04-20T13:46:38.865Z,6.17
2019-04-20T13:49:09.279Z,5.58
2019-04-20T13:51:39.121Z,6.45
2019-04-20T13:54:15.086Z,6.03
2019-04-20T13:56:41.826Z,6.47
2019-04-20T13:59:21.995Z,6.90
2019-04-20T14:01:53.235Z,5.37
2019-04-20T14:04:24.277Z,5.35
2019-04-20T14:06:57.427Z,5.53
2019-04-20T14:09:29.739Z,5.42
2019-04-20T14:12:12.712Z,6.50
2019-04-20T14:14:31.038Z,6.15
2019-04-20T14:17:01.204Z,6.15
2019-04-20T14:19:31.445Z,5.28
2019-04-20T14:22:02.110Z,5.45
2019-04-20T14:24:33.054Z,6.37
2019-04-20T14:27:03.322Z,6.17
2019-04-20T14:29:32.867Z,4.95
2019-04-20T14:32:03.633Z,5.22
2019-04-20T14:34:33.321Z,4.83
2019-04-20T14:37:02.857Z,4.40
2019-04-20T14:39:32.364Z,4.65
2019-04-20T14:42:02.459Z,4.47
2019-04-20T14:44:32.126Z,5.35
2019-04-20T14:47:01.554Z,5.22
2019-04-20T14:49:31.016Z,5.47
2019-04-20T14:52:01.558Z,6.00
2019-04-20T14:57:01.269Z,5.03
2019-04-20T14:59:33.688Z,5.70
2019-04-20T15:02:10.885Z,4.58
2019-04-20T15:04:41.219Z,4.45
2019-04-20T15:07:10.917Z,5.50
2019-04-20T15:09:40.676Z,4.72
2019-04-20T15:12:10.923Z,6.47
2019-04-20T15:14:40.849Z,4.80
2019-04-20T15:17:11.923Z,4.40
2019-04-20T15:19:45.625Z,4.15
2019-04-20T15:22:31.814Z,4.35
2019-04-20T15:25:01.274Z,11.73
2019-04-20T15:27:30.681Z,5.70
2019-04-20T15:30:00.332Z,5.87
2019-04-20T15:32:31.237Z,5.20
2019-04-20T15:35:00.921Z,5.65
2019-04-20T15:37:30.958Z,7.10
2019-04-20T15:40:01.194Z,5.90
2019-04-20T15:42:30.627Z,5.37
2019-04-20T15:45:01.153Z,14.75
2019-04-20T15:47:31.966Z,11.18
2019-04-20T15:50:02.256Z,6.33
2019-04-20T15:52:39.963Z,15.35
2019-04-20T15:55:11.816Z,9.08
2019-04-20T15:57:34.911Z,6.60
2019-04-20T16:00:06.678Z,7.00
2019-04-20T16:02:39.044Z,7.37
2019-04-20T16:05:19.025Z,13.40
2019-04-20T16:07:53.484Z,8.93
2019-04-20T16:10:19.594Z,5.97
2019-04-20T16:13:02.965Z,7.10
2019-04-20T16:15:20.264Z,17.40
2019-04-20T16:17:53.013Z,13.20
2019-04-20T16:20:23.565Z,21.30
2019-04-20T16:22:52.269Z,12.05
2019-04-20T16:25:23.552Z,10.63
2019-04-20T16:27:53.836Z,13.45
2019-04-20T16:30:23.445Z,17.52
2019-04-20T16:32:52.868Z,18.98
2019-04-20T16:35:22.599Z,21.90
2019-04-20T16:37:52.697Z,30.02
2019-04-20T16:40:23.415Z,28.20
2019-04-20T16:42:54.227Z,23.65
2019-04-20T16:45:23.779Z,25.85
2019-04-20T16:47:54.407Z,14.28
2019-04-20T16:50:24.767Z,11.57
2019-04-20T16:52:54.965Z,10.00
2019-04-20T16:55:25.140Z,9.48
2019-04-20T16:57:55.539Z,16.30
2019-04-20T17:00:25.531Z,13.22
2019-04-20T17:02:56.169Z,9.43
2019-04-20T17:05:25.930Z,9.80
2019-04-20T17:07:58.337Z,9.08
2019-04-20T17:10:28.864Z,12.90
2019-04-20T17:12:59.804Z,11.80
2019-04-20T17:15:29.711Z,8.38
2019-04-20T17:17:58.967Z,8.63
2019-04-20T17:20:30.673Z,9.13
2019-04-20T17:23:02.110Z,7.70
2019-04-20T17:25:32.240Z,7.25
2019-04-20T17:28:20.687Z,8.98
2019-04-20T17:30:52.924Z,9.63
2019-04-20T17:33:53.381Z,8.40
2019-04-20T17:36:19.803Z,8.05
2019-04-20T17:38:52.603Z,7.37
2019-04-20T17:41:43.030Z,7.67
2019-04-20T17:44:05.841Z,23.10
2019-04-20T17:46:35.791Z,21.35
2019-04-20T17:49:09.281Z,18.05
2019-04-20T17:51:47.569Z,21.87
2019-04-20T17:54:06.974Z,22.93
2019-04-20T17:56:36.241Z,30.65
2019-04-20T17:59:06.118Z,28.98
2019-04-20T18:02:07.870Z,34.27
2019-04-20T18:04:54.908Z,33.00
2019-04-20T18:07:18.305Z,36.33
2019-04-20T18:09:49.286Z,38.70
2019-04-20T18:12:06.247Z,32.95
2019-04-20T18:14:46.069Z,49.85
2019-04-20T18:17:17.880Z,72.97
2019-04-20T18:19:55.107Z,69.37
2019-04-20T18:22:25.763Z,47.83
2019-04-20T18:25:14.700Z,36.95
2019-04-20T18:27:41.561Z,26.35
2019-04-20T18:30:15.520Z,23.42
2019-04-20T18:35:18.755Z,32.03
2019-04-20T18:37:53.628Z,35.80
2019-04-20T18:40:29.010Z,36.63
2019-04-20T18:43:06.363Z,35.78
2019-04-20T18:45:33.740Z,35.20
2019-04-20T18:48:14.658Z,34.27
2019-04-20T18:50:32.865Z,36.68
2019-04-20T18:52:55.891Z,35.52
2019-04-20T18:55:36.527Z,32.85
2019-04-20T18:57:57.279Z,29.82
2019-04-20T19:00:32.459Z,25.60
2019-04-20T19:03:11.140Z,30.55
2019-04-20T19:05:29.583Z,34.98
2019-04-20T19:08:03.368Z,36.53
2019-04-20T19:10:35.008Z,34.15
2019-04-20T19:13:06.241Z,25.40
2019-04-20T19:16:03.583Z,22.32
2019-04-20T19:18:45.226Z,23.02
2019-04-20T19:24:00.277Z,24.23
2019-04-20T19:26:25.603Z,24.43
2019-04-20T19:28:59.402Z,23.47
2019-04-20T19:31:42.721Z,24.15
2019-04-20T19:34:15.337Z,21.00
2019-04-20T19:36:36.774Z,21.97
2019-04-20T19:39:17.258Z,20.72
2019-04-20T19:41:42.250Z,18.35
2019-04-20T19:44:13.579Z,18.17
2019-04-20T19:47:03.295Z,18.52
2019-04-20T19:49:19.265Z,22.35
2019-04-20T19:52:02.889Z,21.85
2019-04-20T19:54:29.988Z,17.70
2019-04-20T19:56:56.324Z,13.55
2019-04-20T19:59:19.821Z,15.48
2019-04-20T20:01:40.319Z,14.65
2019-04-20T20:04:11.511Z,14.30
2019-04-20T20:06:47.250Z,15.23
2019-04-20T20:09:13.343Z,14.03
2019-04-20T20:11:45.008Z,14.95
2019-04-20T20:14:17.960Z,14.53
2019-04-20T20:17:04.169Z,15.78
2019-04-20T20:19:32.342Z,18.42
2019-04-20T20:22:02.297Z,20.15
2019-04-20T20:24:19.656Z,20.10
2019-04-20T20:26:56.357Z,21.05
2019-04-20T20:29:30.524Z,17.00
2019-04-20T20:32:05.263Z,17.42
2019-04-20T20:34:31.094Z,16.20
2019-04-20T20:37:01.786Z,14.87
2019-04-20T20:39:31.070Z,15.10
2019-04-20T20:42:12.869Z,13.30
2019-04-20T20:44:42.804Z,12.45
2019-04-20T20:47:21.788Z,11.30
2019-04-20T20:49:58.511Z,12.00
2019-04-20T20:52:22.023Z,10.45
2019-04-20T20:54:46.325Z,10.45
2019-04-20T20:57:12.690Z,10.60
2019-04-20T20:59:48.203Z,9.73
2019-04-20T21:02:18.001Z,9.78
2019-04-20T21:04:39.530Z,10.58
2019-04-20T21:07:10.972Z,10.43
2019-04-20T21:09:41.826Z,11.20
2019-04-20T21:12:15.906Z,13.43
2019-04-20T21:14:44.121Z,13.18
2019-04-20T21:17:18.446Z,21.68
2019-04-20T21:19:58.183Z,33.48
2019-04-20T21:22:32.449Z,31.68
2019-04-20T21:24:52.963Z,25.32
2019-04-20T21:27:23.943Z,21.82
2019-04-20T21:29:57.855Z,11.60
2019-04-20T21:32:26.156Z,10.40
2019-04-20T21:35:01.263Z,10.05
2019-04-20T21:37:27.292Z,12.95
2019-04-20T21:40:00.550Z,16.00
2019-04-20T21:42:34.788Z,15.13
2019-04-20T21:45:07.706Z,15.28
2019-04-20T21:47:34.671Z,14.98
2019-04-20T21:50:18.734Z,16.37
2019-04-20T21:52:40.773Z,15.23
2019-04-20T21:55:04.228Z,15.60
2019-04-20T21:57:42.064Z,19.25
2019-04-20T22:00:16.812Z,16.47
2019-04-20T22:02:48.573Z,16.35
2019-04-20T22:05:11.426Z,19.27
2019-04-20T22:07:40.770Z,16.27
2019-04-20T22:10:11.675Z,16.20
2019-04-20T22:12:47.592Z,15.48
2019-04-20T22:15:22.077Z,13.45
2019-04-20T22:17:42.783Z,17.17
2019-04-20T22:20:22.775Z,13.60
2019-04-20T22:22:57.151Z,14.50
2019-04-20T22:25:36.339Z,14.25
2019-04-20T22:27:44.323Z,14.78
2019-04-20T22:30:14.402Z,14.65
2019-04-20T22:32:46.989Z,14.97
2019-04-20T22:35:16.241Z,18.37
2019-04-20T22:38:06.989Z,17.07
2019-04-20T22:40:35.217Z,17.07
2019-04-20T22:43:04.293Z,17.00
2019-04-20T22:45:35.133Z,16.27
2019-04-20T22:48:08.203Z,16.07
2019-04-20T22:50:51.053Z,17.23
2019-04-20T22:53:17.938Z,18.67
2019-04-20T22:56:00.379Z,17.50
2019-04-20T22:58:25.009Z,16.33
2019-04-20T23:00:46.740Z,15.77
2019-04-20T23:03:07.237Z,14.73
2019-04-20T23:05:36.571Z,14.93
2019-04-20T23:08:06.713Z,14.67
2019-04-20T23:10:39.996Z,14.87
2019-04-20T23:13:07.366Z,16.07
2019-04-20T23:15:36.380Z,16.73
2019-04-20T23:18:06.334Z,16.33
2019-04-20T23:20:38.485Z,16.53
2019-04-20T23:23:07.198Z,16.73
2019-04-20T23:25:36.507Z,18.27
2019-04-20T23:28:10.189Z,18.00
2019-04-20T23:30:39.359Z,17.60
2019-04-20T23:33:07.780Z,17.00
2019-04-20T23:35:37.568Z,16.87
2019-04-20T23:38:11.061Z,16.40
2019-04-20T23:40:37.773Z,17.90
2019-04-20T23:43:17.664Z,17.13
2019-04-20T23:45:57.136Z,17.10
2019-04-20T23:48:32.409Z,17.30
2019-04-20T23:51:09.934Z,17.30
2019-04-20T23:53:45.518Z,16.63
2019-04-20T23:55:59.594Z,16.03
2019-04-20T23:58:30.979Z,17.03
